| time (UTC) | temp C | wind direction | speed KPH | gust KPH | rain 1hr cm | rain 24hr cm | rain mn cm | humidity % | barometer mb |
| 20260510142717 | 6 | 278 | 6.4 | 12.9 | 0.00 | 0.36 | 0.00 | 83 | 1013.9 |
| 20260510135717 | 6 | 261 | 6.4 | 12.9 | 0.00 | 0.36 | 0.00 | 84 | 1013.6 |
| 20260510132726 | 5 | 0 | 6.4 | 12.9 | 0.00 | 0.36 | 0.00 | 84 | 1013.3 |
| 20260510125717 | 5 | 261 | 4.8 | 9.7 | 0.00 | 0.36 | 0.00 | 84 | 1012.7 |
| 20260510122717 | 5 | 261 | 4.8 | 9.7 | 0.00 | 0.36 | 0.00 | 85 | 1012.4 |
| 20260510122459 | 5 | 261 | 4.8 | 12.9 | 0.00 | 0.36 | 0.00 | 85 | 1012.1 |
| 20260510112717 | 5 | 261 | 4.8 | 14.5 | 0.00 | 0.36 | 0.00 | 84 | 1011.4 |
| 20260510105717 | 5 | 261 | 4.8 | 14.5 | 0.00 | 0.36 | 0.00 | 84 | 1011.0 |
| 20260510102715 | 5 | 261 | 4.8 | 20.9 | 0.00 | 0.36 | 0.00 | 85 | 1010.5 |
| 20260510102437 | 5 | 261 | 8.0 | 20.9 | 0.00 | 0.36 | 0.00 | 83 | 1010.1 |
| 20260510092711 | 5 | 261 | 4.8 | 14.5 | 0.00 | 0.36 | 0.00 | 84 | 1009.6 |
| 20260510085710 | 6 | 261 | 6.4 | 22.5 | 0.00 | 0.36 | 0.00 | 83 | 1009.3 |
| 20260510082710 | 5 | 0 | 4.8 | 22.5 | 0.00 | 0.36 | 0.00 | 86 | 1008.9 |
| 20260510075711 | 6 | 261 | 11.3 | 20.9 | 0.00 | 0.36 | 0.00 | 81 | 1008.5 |
| 20260510072710 | 5 | 261 | 6.4 | 16.1 | 0.00 | 0.36 | 0.00 | 83 | 1008.3 |
| 20260510065708 | 5 | 0 | 3.2 | 12.9 | 0.00 | 0.36 | 0.00 | 85 | 1008.3 |
| 20260510062708 | 5 | 0 | 3.2 | 12.9 | 0.00 | 0.36 | 0.00 | 84 | 1008.0 |
| 20260510055710 | 5 | 261 | 6.4 | 14.5 | 0.00 | 0.36 | 0.00 | 85 | 1007.9 |
| 20260510052708 | 5 | 261 | 8.0 | 19.3 | 0.00 | 0.36 | 0.00 | 85 | 1007.7 |
| 20260510045708 | 6 | 261 | 9.7 | 22.5 | 0.00 | 0.36 | 0.00 | 84 | 1007.3 |
| 20260510045513 | 6 | 261 | 8.0 | 20.9 | 0.00 | 0.36 | 0.00 | 83 | 1007.0 |
| 20260510035709 | 6 | 31 | 11.3 | 25.7 | 0.00 | 0.36 | 0.36 | 83 | 1006.5 |
| 20260510032707 | 6 | 261 | 8.0 | 19.3 | 0.00 | 0.36 | 0.36 | 83 | 1006.2 |
| 20260510025705 | 6 | 261 | 8.0 | 19.3 | 0.00 | 0.36 | 0.36 | 83 | 1005.8 |
| 20260510022704 | 7 | 261 | 4.8 | 16.1 | 0.00 | 0.36 | 0.36 | 78 | 1005.2 |
| 20260510021053 | 8 | 261 | 4.8 | 16.1 | 0.00 | 0.36 | 0.36 | 70 | 1004.6 |
| 20260510013813 | 8 | 14 | 1.6 | 9.7 | 0.00 | 0.36 | 0.36 | 75 | 1003.3 |
| 20260510012702 | 7 | 261 | 1.6 | 6.4 | 0.00 | 0.36 | 0.36 | 72 | 1003.8 |
| 20260510002700 | 8 | 261 | 3.2 | 11.3 | 0.00 | 0.36 | 0.36 | 77 | 1002.6 |
| 20260510001047 | 8 | 43 | 1.6 | 12.9 | 0.00 | 0.36 | 0.36 | 78 | 1002.1 |
| 20260509234044 | 7 | 57 | 4.8 | 17.7 | 0.00 | 0.36 | 0.36 | 85 | 1001.5 |
| 20260509225700 | 9 | 261 | 9.7 | 19.3 | 0.00 | 0.36 | 0.36 | 81 | 1001.0 |
| 20260509222700 | 11 | 261 | 4.8 | 11.3 | 0.00 | 0.36 | 0.36 | 79 | 999.9 |
| 20260509215700 | 11 | 261 | 1.6 | 11.3 | 0.00 | 0.36 | 0.36 | 79 | 999.7 |
| 20260509212700 | 12 | 261 | 1.6 | 9.7 | 0.00 | 0.36 | 0.36 | 80 | 999.3 |
| 20260509212445 | 12 | 261 | 3.2 | 19.3 | 0.00 | 0.36 | 0.36 | 83 | 998.9 |
| 20260509202658 | 12 | 261 | 3.2 | 17.7 | 0.00 | 0.36 | 0.36 | 85 | 998.5 |
| 20260509201047 | 11 | 261 | 4.8 | 19.3 | 0.28 | 0.36 | 0.36 | 91 | 998.4 |
| 20260509192658 | 11 | 261 | 6.4 | 29.0 | 0.28 | 0.36 | 0.36 | 91 | 998.1 |
| 20260509185658 | 15 | 261 | 8.0 | 33.8 | 0.00 | 0.08 | 0.08 | 72 | 997.2 |
| 20260509184113 | 16 | 261 | 11.3 | 38.6 | 0.00 | 0.08 | 0.08 | 67 | 997.4 |
| 20260509175657 | 18 | 261 | 12.9 | 40.2 | 0.00 | 0.08 | 0.08 | 59 | 997.6 |
| 20260509172657 | 16 | 261 | 12.9 | 38.6 | 0.00 | 0.08 | 0.08 | 65 | 997.1 |
| 20260509165658 | 16 | 185 | 11.3 | 33.8 | 0.05 | 0.08 | 0.08 | 72 | 997.3 |
| 20260509162657 | 15 | 261 | 8.0 | 30.6 | 0.05 | 0.08 | 0.08 | 77 | 998.1 |
| 20260509161043 | 15 | 261 | 8.0 | 27.4 | 0.00 | 0.03 | 0.03 | 77 | 998.7 |
| 20260509152657 | 13 | 261 | 8.0 | 22.5 | 0.03 | 0.03 | 0.03 | 80 | 999.6 |
| 20260509145659 | 12 | 261 | 3.2 | 22.5 | 0.03 | 0.03 | 0.03 | 89 | 1000.7 |